Time;durP1;ratioP1;P1;durP2;ratioP2;P2;SDS_P1;SDS_P2;PMS_P1;PMS_P2;Temp;Humidity;BMP_temperature;BMP_pressure;BME280_temperature;BME280_humidity;BME280_pressure;Samples;Min_cycle;Max_cycle;Signal;HPM_P1;HPM_P2
2022/04/17 00:02:21;;;;;;;33.33;9.43;;;;;;;;;;4990761;28;20085;-40
2022/04/17 00:04:47;;;;;;;29.95;9.55;;;;;;;;;;4992321;28;20092;-41
2022/04/17 00:07:14;;;;;;;29.13;9.50;;;;;;;;;;4993261;28;20027;-42
2022/04/17 00:09:41;;;;;;;32.05;8.90;;;;;;;;;;4993392;28;20121;-41
2022/04/17 00:12:08;;;;;;;27.60;8.75;;;;;;;;;;4993061;28;20030;-41
2022/04/17 00:14:36;;;;;;;29.48;8.93;;;;;;;;;;4993432;28;20134;-40
2022/04/17 00:17:03;;;;;;;31.92;9.23;;;;;;;;;;4994215;28;20034;-40
2022/04/17 00:19:30;;;;;;;31.75;9.40;;;;;;;;;;4993753;28;20050;-39
2022/04/17 00:21:57;;;;;;;32.65;9.50;;;;;;;;;;4993985;28;20113;-40
2022/04/17 00:24:26;;;;;;;29.95;8.98;;;;;;;;;;4994242;28;20089;-40
2022/04/17 00:26:53;;;;;;;23.83;8.70;;;;;;;;;;4993447;28;20096;-40
2022/04/17 00:29:20;;;;;;;29.05;9.48;;;;;;;;;;4993943;28;20030;-41
2022/04/17 00:31:47;;;;;;;29.00;9.10;;;;;;;;;;4993875;28;20030;-40
2022/04/17 00:34:14;;;;;;;26.08;8.65;;;;;;;;;;4993977;28;20410;-40
2022/04/17 00:36:41;;;;;;;25.27;9.18;;;;;;;;;;4994012;28;20117;-40
2022/04/17 00:39:08;;;;;;;28.13;8.15;;;;;;;;;;4993782;28;20034;-40
2022/04/17 00:41:35;;;;;;;25.98;9.10;;;;;;;;;;4993352;28;20078;-40
2022/04/17 00:44:02;;;;;;;27.02;9.18;;;;;;;;;;4993688;28;20030;-40
2022/04/17 00:46:28;;;;;;;29.10;9.18;;;;;;;;;;4993250;28;20077;-40
2022/04/17 00:48:55;;;;;;;42.92;9.38;;;;;;;;;;4993482;28;20022;-41
2022/04/17 00:51:22;;;;;;;30.88;9.30;;;;;;;;;;4993412;28;20064;-39
2022/04/17 00:53:50;;;;;;;30.73;8.48;;;;;;;;;;4993477;28;20053;-40
2022/04/17 00:56:17;;;;;;;26.67;8.27;;;;;;;;;;4993418;28;20420;-40
2022/04/17 00:58:44;;;;;;;24.90;8.57;;;;;;;;;;4993135;28;20034;-40
2022/04/17 01:01:11;;;;;;;30.17;10.77;;;;;;;;;;4993071;28;20120;-40
2022/04/17 01:03:38;;;;;;;33.60;11.90;;;;;;;;;;4993193;28;20038;-40
2022/04/17 01:06:06;;;;;;;37.47;13.88;;;;;;;;;;4993266;28;20026;-40
2022/04/17 01:08:34;;;;;;;51.15;18.90;;;;;;;;;;4993216;28;20392;-40
2022/04/17 01:11:02;;;;;;;53.25;19.50;;;;;;;;;;4993035;28;20126;-40
2022/04/17 01:13:29;;;;;;;56.17;22.33;;;;;;;;;;4992756;28;20511;-40
2022/04/17 01:15:58;;;;;;;51.08;21.85;;;;;;;;;;4992464;28;20104;-40
2022/04/17 01:18:25;;;;;;;50.08;20.98;;;;;;;;;;4991906;28;20508;-40
2022/04/17 01:20:52;;;;;;;53.10;22.35;;;;;;;;;;5001847;28;20034;-41
2022/04/17 01:28:55;;;;;;;51.83;18.60;;;;;;;;;;4996592;28;20045;-40
2022/04/17 01:31:21;;;;;;;;;;;;;;;;;;4998422;28;20492;-40
2022/04/17 01:33:49;;;;;;;48.80;18.88;;;;;;;;;;5001656;28;19913;-38
2022/04/17 01:36:19;;;;;;;53.10;17.08;;;;;;;;;;5001939;28;20038;-40
2022/04/17 01:38:46;;;;;;;41.03;16.02;;;;;;;;;;4998850;28;20026;-39
2022/04/17 01:41:25;;;;;;;38.88;16.05;;;;;;;;;;5002588;28;20391;-42
2022/04/17 01:43:56;;;;;;;37.33;15.50;;;;;;;;;;4979171;28;20112;-40
2022/04/17 01:46:23;;;;;;;42.03;15.30;;;;;;;;;;4996606;28;20042;-39
2022/04/17 01:48:50;;;;;;;31.92;13.77;;;;;;;;;;5000709;28;20023;-39
2022/04/17 01:51:18;;;;;;;35.78;13.98;;;;;;;;;;5002088;28;20054;-40
2022/04/17 01:53:46;;;;;;;40.10;15.00;;;;;;;;;;5001966;28;20026;-41
2022/04/17 01:56:13;;;;;;;41.25;14.05;;;;;;;;;;5000348;28;20069;-39
2022/04/17 01:58:41;;;;;;;33.83;14.40;;;;;;;;;;5001378;28;20030;-39
2022/04/17 02:01:08;;;;;;;33.88;13.68;;;;;;;;;;5002154;28;20481;-40
2022/04/17 02:03:35;;;;;;;33.42;12.77;;;;;;;;;;4991654;28;20554;-40
2022/04/17 02:06:02;;;;;;;32.38;13.85;;;;;;;;;;4992763;28;20035;-40
2022/04/17 02:08:31;;;;;;;30.27;13.35;;;;;;;;;;4975466;28;20031;-40
2022/04/17 02:10:58;;;;;;;32.22;14.13;;;;;;;;;;4992653;28;20045;-40
2022/04/17 02:13:27;;;;;;;30.70;12.05;;;;;;;;;;4992544;28;20032;-39
2022/04/17 02:15:54;;;;;;;32.75;12.27;;;;;;;;;;4992629;28;20038;-39
2022/04/17 02:18:22;;;;;;;32.33;12.07;;;;;;;;;;4992812;28;20073;-39
2022/04/17 02:20:49;;;;;;;28.60;12.18;;;;;;;;;;4992546;28;20042;-39
2022/04/17 02:23:16;;;;;;;26.33;11.50;;;;;;;;;;4992691;28;20041;-38
2022/04/17 02:25:43;;;;;;;32.00;11.93;;;;;;;;;;4992463;28;20121;-39
2022/04/17 02:28:11;;;;;;;33.58;11.65;;;;;;;;;;4991863;28;20034;-39
2022/04/17 02:30:38;;;;;;;25.05;10.90;;;;;;;;;;4992675;28;20042;-39
2022/04/17 02:33:06;;;;;;;34.65;11.95;;;;;;;;;;4992546;28;20379;-39
2022/04/17 02:35:33;;;;;;;27.70;10.65;;;;;;;;;;4992503;28;20031;-39
2022/04/17 02:38:01;;;;;;;25.45;10.88;;;;;;;;;;4992112;28;20084;-40
2022/04/17 02:40:28;;;;;;;25.10;11.10;;;;;;;;;;4992345;28;20038;-39
2022/04/17 02:42:55;;;;;;;24.88;10.40;;;;;;;;;;4992268;28;20045;-38
2022/04/17 02:45:22;;;;;;;83.38;12.98;;;;;;;;;;4992410;28;20026;-39
2022/04/17 02:47:51;;;;;;;20.75;9.82;;;;;;;;;;4992398;28;20088;-38
2022/04/17 02:50:19;;;;;;;36.85;10.93;;;;;;;;;;4992284;28;20038;-37
2022/04/17 02:52:47;;;;;;;26.63;9.88;;;;;;;;;;4992414;28;20023;-39
2022/04/17 02:55:14;;;;;;;21.08;10.05;;;;;;;;;;4992343;28;20034;-39
2022/04/17 02:57:41;;;;;;;29.88;9.93;;;;;;;;;;4992013;28;20030;-39
2022/04/17 03:00:10;;;;;;;25.63;10.13;;;;;;;;;;4991851;28;20032;-38
2022/04/17 03:05:39;;;;;;;23.85;9.48;;;;;;;;;;4992365;28;20487;-39
2022/04/17 03:08:14;;;;;;;33.72;9.70;;;;;;;;;;4992120;28;20084;-39
2022/04/17 03:10:46;;;;;;;21.33;8.27;;;;;;;;;;4992399;28;20038;-40
2022/04/17 03:13:14;;;;;;;25.80;9.23;;;;;;;;;;4992240;28;20026;-39
2022/04/17 03:15:42;;;;;;;22.65;9.10;;;;;;;;;;4992194;28;20098;-39
2022/04/17 03:18:10;;;;;;;24.05;9.43;;;;;;;;;;4992136;28;20027;-40
2022/04/17 03:20:38;;;;;;;22.38;8.52;;;;;;;;;;4991548;28;20046;-40
2022/04/17 03:23:06;;;;;;;18.83;7.88;;;;;;;;;;4992194;28;20388;-40
2022/04/17 03:25:34;;;;;;;23.33;9.00;;;;;;;;;;4992006;28;20102;-40
2022/04/17 03:28:02;;;;;;;24.33;7.90;;;;;;;;;;4992220;28;20054;-39
2022/04/17 03:30:29;;;;;;;20.02;8.07;;;;;;;;;;4991974;28;20035;-40
2022/04/17 03:32:57;;;;;;;19.45;8.88;;;;;;;;;;4992027;28;20020;-39
2022/04/17 03:35:24;;;;;;;23.35;8.18;;;;;;;;;;4991844;28;20038;-39
2022/04/17 03:37:53;;;;;;;19.50;7.78;;;;;;;;;;4992070;28;20015;-44
2022/04/17 03:40:21;;;;;;;21.38;7.85;;;;;;;;;;4995016;28;20044;-39
2022/04/17 03:42:48;;;;;;;19.08;7.60;;;;;;;;;;4995485;28;20034;-39
2022/04/17 03:45:17;;;;;;;18.88;7.68;;;;;;;;;;4995348;28;20037;-39
2022/04/17 03:47:44;;;;;;;20.13;7.28;;;;;;;;;;4994947;28;20058;-39
2022/04/17 03:50:12;;;;;;;16.55;7.63;;;;;;;;;;4995368;28;20362;-39
2022/04/17 03:52:50;;;;;;;23.13;7.90;;;;;;;;;;4995456;28;20485;-39
2022/04/17 03:55:18;;;;;;;20.27;8.23;;;;;;;;;;4995259;28;20056;-39
2022/04/17 03:57:45;;;;;;;17.95;7.28;;;;;;;;;;4994901;28;20026;-40
2022/04/17 04:00:13;;;;;;;16.73;7.43;;;;;;;;;;4977366;28;20026;-39
2022/04/17 04:02:46;;;;;;;16.73;7.25;;;;;;;;;;4995230;28;20113;-38
2022/04/17 04:05:14;;;;;;;17.90;7.28;;;;;;;;;;4977588;28;20054;-38
2022/04/17 04:07:41;;;;;;;17.48;6.57;;;;;;;;;;4994618;28;20038;-39
2022/04/17 04:10:09;;;;;;;15.20;7.20;;;;;;;;;;4995168;28;20069;-40
2022/04/17 04:12:36;;;;;;;17.13;7.03;;;;;;;;;;4993935;28;20026;-38
2022/04/17 04:15:03;;;;;;;17.42;6.95;;;;;;;;;;4994446;28;20542;-39
2022/04/17 04:17:30;;;;;;;16.02;6.70;;;;;;;;;;4994871;28;20045;-39
2022/04/17 04:19:57;;;;;;;15.70;6.25;;;;;;;;;;4994955;28;20022;-40
2022/04/17 04:22:24;;;;;;;13.63;6.72;;;;;;;;;;4994618;28;20388;-39
2022/04/17 04:24:51;;;;;;;12.93;5.70;;;;;;;;;;4994338;28;20049;-38
2022/04/17 04:30:04;;;;;;;13.63;6.35;;;;;;;;;;4994854;28;20049;-38
2022/04/17 04:32:31;;;;;;;17.83;5.97;;;;;;;;;;4994740;28;20038;-38
2022/04/17 04:35:00;;;;;;;11.27;5.75;;;;;;;;;;4994283;28;20030;-39
2022/04/17 04:37:28;;;;;;;13.68;5.80;;;;;;;;;;4994531;28;20480;-38
2022/04/17 04:39:56;;;;;;;13.13;5.47;;;;;;;;;;4977109;28;20037;-38
2022/04/17 04:42:23;;;;;;;13.05;5.47;;;;;;;;;;4994368;28;20463;-38
2022/04/17 04:46:06;;;;;;;12.90;4.85;;;;;;;;;;4994511;28;20027;-38
2022/04/17 04:47:37;;;;;;;14.25;5.32;;;;;;;;;;4994078;28;20137;-38
2022/04/17 04:50:05;;;;;;;12.02;5.35;;;;;;;;;;4993509;28;20018;-39
2022/04/17 04:52:35;;;;;;;11.93;6.00;;;;;;;;;;4994305;28;20060;-39
2022/04/17 04:55:02;;;;;;;15.82;5.88;;;;;;;;;;4994280;28;20400;-39
2022/04/17 04:57:29;;;;;;;12.38;5.47;;;;;;;;;;4994408;28;20424;-38
2022/04/17 04:59:56;;;;;;;15.93;5.85;;;;;;;;;;4994354;28;20033;-39
2022/04/17 05:02:23;;;;;;;13.80;5.90;;;;;;;;;;4994318;28;20030;-38
2022/04/17 05:04:50;;;;;;;13.63;5.38;;;;;;;;;;4994291;28;20018;-38
2022/04/17 05:07:17;;;;;;;12.18;5.47;;;;;;;;;;4994289;28;20483;-39
2022/04/17 05:09:44;;;;;;;15.23;5.28;;;;;;;;;;4994335;28;20072;-38
2022/04/17 05:12:11;;;;;;;11.48;5.28;;;;;;;;;;4994198;28;20104;-39
2022/04/17 05:14:41;;;;;;;15.57;5.47;;;;;;;;;;4993999;28;20034;-39
2022/04/17 05:17:08;;;;;;;12.27;4.95;;;;;;;;;;4993646;28;20038;-38
2022/04/17 05:19:35;;;;;;;13.73;5.13;;;;;;;;;;4993984;28;20022;-38
2022/04/17 05:22:02;;;;;;;14.15;5.57;;;;;;;;;;4994130;28;20687;-39
2022/04/17 05:24:30;;;;;;;12.15;4.57;;;;;;;;;;4993870;28;20455;-38
2022/04/17 05:26:57;;;;;;;13.55;5.00;;;;;;;;;;4993723;28;20061;-38
2022/04/17 05:29:24;;;;;;;9.80;5.00;;;;;;;;;;4993993;28;20037;-39
2022/04/17 05:31:51;;;;;;;9.52;4.57;;;;;;;;;;4976748;28;20431;-39
2022/04/17 05:34:17;;;;;;;16.20;5.15;;;;;;;;;;4993779;28;20427;-39
2022/04/17 05:36:44;;;;;;;14.02;5.05;;;;;;;;;;4993636;28;20033;-39
2022/04/17 05:39:12;;;;;;;13.05;4.68;;;;;;;;;;4976114;28;20027;-38
2022/04/17 05:41:39;;;;;;;14.02;5.10;;;;;;;;;;4993539;28;20066;-38
2022/04/17 05:44:07;;;;;;;11.82;4.32;;;;;;;;;;4993654;28;20026;-39
2022/04/17 05:46:38;;;;;;;9.73;4.70;;;;;;;;;;4993360;28;20142;-39
2022/04/17 05:49:06;;;;;;;9.57;5.13;;;;;;;;;;4993558;28;20030;-38
2022/04/17 05:51:34;;;;;;;10.82;4.65;;;;;;;;;;4993313;28;20062;-38
2022/04/17 05:54:01;;;;;;;9.20;4.53;;;;;;;;;;4993388;28;20030;-39
2022/04/17 05:56:29;;;;;;;10.77;4.30;;;;;;;;;;4993321;28;20043;-39
2022/04/17 05:58:56;;;;;;;8.77;4.30;;;;;;;;;;4993351;28;20109;-39
2022/04/17 06:01:23;;;;;;;12.13;4.60;;;;;;;;;;4993174;28;20034;-39
2022/04/17 06:03:51;;;;;;;7.22;4.00;;;;;;;;;;4993231;28;20373;-38
2022/04/17 06:06:18;;;;;;;10.18;4.30;;;;;;;;;;4993170;28;20022;-38
2022/04/17 06:08:48;;;;;;;10.85;4.47;;;;;;;;;;4993292;28;20022;-39
2022/04/17 06:11:15;;;;;;;8.25;3.65;;;;;;;;;;4993195;28;20113;-39
2022/04/17 06:13:42;;;;;;;9.57;4.13;;;;;;;;;;4993261;28;20030;-38
2022/04/17 06:16:09;;;;;;;9.07;4.80;;;;;;;;;;4993099;28;20057;-39
2022/04/17 06:18:36;;;;;;;10.57;3.60;;;;;;;;;;4993099;28;20034;-39
2022/04/17 06:21:03;;;;;;;8.50;4.05;;;;;;;;;;4992954;28;20042;-39
2022/04/17 06:23:31;;;;;;;8.70;4.50;;;;;;;;;;4992914;28;20037;-38
2022/04/17 06:26:00;;;;;;;12.00;4.10;;;;;;;;;;4992874;28;20036;-39
2022/04/17 06:28:27;;;;;;;10.73;4.30;;;;;;;;;;4993033;28;20062;-39
2022/04/17 06:30:55;;;;;;;7.95;3.95;;;;;;;;;;4992907;28;20045;-39
2022/04/17 06:33:22;;;;;;;6.75;3.78;;;;;;;;;;4992969;28;20022;-39
2022/04/17 06:35:48;;;;;;;7.13;4.28;;;;;;;;;;4992882;28;20023;-39
2022/04/17 06:38:16;;;;;;;9.60;3.95;;;;;;;;;;4992734;28;20491;-39
2022/04/17 06:40:43;;;;;;;8.90;4.22;;;;;;;;;;4992775;28;20507;-39
2022/04/17 06:43:10;;;;;;;9.27;4.18;;;;;;;;;;4992782;28;20110;-39
2022/04/17 06:45:38;;;;;;;8.23;4.07;;;;;;;;;;4992754;28;20042;-40
2022/04/17 06:48:15;;;;;;;7.10;3.67;;;;;;;;;;4992673;28;20053;-39
2022/04/17 06:50:42;;;;;;;11.20;4.07;;;;;;;;;;4992926;28;20026;-39
2022/04/17 06:53:09;;;;;;;8.90;3.83;;;;;;;;;;4975337;28;20041;-39
2022/04/17 06:55:36;;;;;;;6.55;3.40;;;;;;;;;;4992654;28;20022;-39
2022/04/17 06:58:04;;;;;;;8.73;3.40;;;;;;;;;;4992859;28;20030;-39
2022/04/17 07:00:31;;;;;;;12.55;3.90;;;;;;;;;;4992815;28;20105;-39
2022/04/17 07:02:58;;;;;;;6.82;3.50;;;;;;;;;;4992700;28;20053;-39
2022/04/17 07:05:25;;;;;;;9.20;3.50;;;;;;;;;;4992626;28;20061;-39
2022/04/17 07:08:01;;;;;;;7.82;3.50;;;;;;;;;;4992453;28;20036;-39
2022/04/17 07:10:29;;;;;;;7.65;3.38;;;;;;;;;;4992598;28;20022;-40
2022/04/17 07:12:56;;;;;;;7.72;3.30;;;;;;;;;;4992671;28;20113;-40
2022/04/17 07:15:24;;;;;;;7.78;3.20;;;;;;;;;;4995964;28;20150;-40
2022/04/17 07:17:51;;;;;;;7.22;3.22;;;;;;;;;;4996435;28;20176;-40
2022/04/17 07:20:18;;;;;;;8.38;3.50;;;;;;;;;;4996028;28;20026;-40
2022/04/17 07:22:45;;;;;;;7.72;3.38;;;;;;;;;;4996177;28;20435;-40
2022/04/17 07:25:13;;;;;;;6.57;3.58;;;;;;;;;;4996128;28;20066;-40
2022/04/17 07:27:40;;;;;;;8.43;3.08;;;;;;;;;;4996192;28;20069;-40
2022/04/17 07:30:11;;;;;;;7.05;3.53;;;;;;;;;;4996132;28;20030;-40
2022/04/17 07:32:39;;;;;;;7.20;3.25;;;;;;;;;;4996024;28;20031;-40
2022/04/17 07:35:06;;;;;;;8.02;3.63;;;;;;;;;;4995981;28;20392;-40
2022/04/17 07:37:35;;;;;;;9.23;3.38;;;;;;;;;;4996036;28;20023;-40
2022/04/17 07:40:03;;;;;;;8.40;3.45;;;;;;;;;;4995747;28;20531;-40
2022/04/17 07:42:30;;;;;;;8.73;3.67;;;;;;;;;;4995859;28;20045;-40
2022/04/17 07:44:57;;;;;;;5.35;2.75;;;;;;;;;;4995721;28;20038;-40
2022/04/17 07:47:24;;;;;;;8.07;3.50;;;;;;;;;;4995468;28;20038;-40
2022/04/17 07:49:51;;;;;;;9.93;2.92;;;;;;;;;;4995693;28;20041;-40
2022/04/17 07:52:18;;;;;;;6.50;3.38;;;;;;;;;;4995770;28;20073;-40
2022/04/17 07:54:47;;;;;;;6.82;3.22;;;;;;;;;;4995558;28;20025;-40
2022/04/17 07:57:14;;;;;;;5.38;2.80;;;;;;;;;;4995462;28;20070;-40
2022/04/17 07:59:41;;;;;;;6.38;2.78;;;;;;;;;;4995466;28;20030;-40
2022/04/17 08:02:22;;;;;;;6.38;2.58;;;;;;;;;;4977956;28;20092;-40
2022/04/17 08:04:52;;;;;;;5.90;2.97;;;;;;;;;;4995476;28;20034;-40
2022/04/17 08:07:19;;;;;;;6.90;2.75;;;;;;;;;;4995532;28;20029;-40
2022/04/17 08:09:47;;;;;;;7.40;2.85;;;;;;;;;;4995353;28;20033;-40
2022/04/17 08:12:14;;;;;;;6.22;2.97;;;;;;;;;;4995440;28;20249;-40
2022/04/17 08:14:41;;;;;;;7.28;2.80;;;;;;;;;;4995175;28;20433;-40
2022/04/17 08:17:08;;;;;;;6.38;2.40;;;;;;;;;;4995279;28;20037;-40
2022/04/17 08:19:35;;;;;;;6.18;3.05;;;;;;;;;;4995260;28;20023;-40
2022/04/17 08:22:03;;;;;;;5.20;2.67;;;;;;;;;;4977597;28;20093;-40
2022/04/17 08:24:30;;;;;;;4.50;2.40;;;;;;;;;;4995065;28;20022;-41
2022/04/17 08:26:59;;;;;;;7.35;2.53;;;;;;;;;;4995107;28;20026;-40
2022/04/17 08:29:26;;;;;;;5.30;2.97;;;;;;;;;;4995083;28;20513;-40
2022/04/17 08:31:53;;;;;;;5.47;2.83;;;;;;;;;;4994857;28;20416;-40
2022/04/17 08:34:21;;;;;;;5.95;2.80;;;;;;;;;;4994903;28;20384;-40
2022/04/17 08:36:48;;;;;;;4.80;2.17;;;;;;;;;;4994732;28;20169;-40
2022/04/17 08:39:16;;;;;;;4.22;2.00;;;;;;;;;;4994761;28;20035;-40
2022/04/17 08:41:54;;;;;;;5.20;2.17;;;;;;;;;;4994580;28;20489;-40
2022/04/17 08:44:22;;;;;;;5.00;2.10;;;;;;;;;;4994730;28;20038;-40
2022/04/17 08:46:49;;;;;;;6.07;2.33;;;;;;;;;;4994408;28;20057;-40
2022/04/17 08:49:16;;;;;;;5.68;2.40;;;;;;;;;;4994642;28;20030;-40
2022/04/17 08:51:48;;;;;;;5.90;2.38;;;;;;;;;;4994631;28;20035;-40
2022/04/17 08:54:18;;;;;;;4.57;2.10;;;;;;;;;;4994650;28;20030;-40
2022/04/17 08:56:45;;;;;;;5.88;2.90;;;;;;;;;;4994461;28;20261;-40
2022/04/17 08:59:13;;;;;;;4.78;2.13;;;;;;;;;;4994547;28;20030;-40
2022/04/17 09:01:40;;;;;;;4.60;2.58;;;;;;;;;;4994242;28;20053;-40
2022/04/17 09:04:08;;;;;;;5.40;2.38;;;;;;;;;;4994504;28;20106;-40
2022/04/17 09:06:36;;;;;;;6.40;2.70;;;;;;;;;;4994534;28;20357;-40
2022/04/17 09:09:07;;;;;;;6.32;2.65;;;;;;;;;;4994090;28;20053;-40
2022/04/17 09:11:35;;;;;;;6.13;2.50;;;;;;;;;;4994181;28;20026;-40
2022/04/17 09:14:03;;;;;;;3.85;2.22;;;;;;;;;;4994280;28;20054;-40
2022/04/17 09:16:40;;;;;;;4.95;2.65;;;;;;;;;;4994152;28;20029;-40
2022/04/17 09:19:14;;;;;;;4.50;2.42;;;;;;;;;;4994120;28;20026;-40
2022/04/17 09:21:42;;;;;;;5.85;2.40;;;;;;;;;;4994010;28;20037;-40
2022/04/17 09:24:15;;;;;;;4.57;2.50;;;;;;;;;;4994017;28;20026;-40
2022/04/17 09:26:55;;;;;;;4.40;2.58;;;;;;;;;;4993832;28;20030;-40
2022/04/17 09:29:26;;;;;;;5.70;2.60;;;;;;;;;;4993912;28;20029;-40
2022/04/17 09:32:03;;;;;;;4.70;2.08;;;;;;;;;;4993795;28;20033;-40
2022/04/17 09:34:42;;;;;;;5.60;2.42;;;;;;;;;;4993790;28;20023;-40
2022/04/17 09:37:16;;;;;;;4.70;2.10;;;;;;;;;;4993366;28;20551;-40
2022/04/17 09:39:43;;;;;;;6.25;2.53;;;;;;;;;;4993773;28;20030;-40
2022/04/17 09:42:10;;;;;;;6.35;2.08;;;;;;;;;;4975992;28;20057;-40
2022/04/17 09:44:38;;;;;;;3.80;2.65;;;;;;;;;;4993629;28;20381;-40
2022/04/17 09:47:09;;;;;;;5.07;1.88;;;;;;;;;;4993291;28;20082;-40
2022/04/17 09:49:55;;;;;;;4.07;2.10;;;;;;;;;;4993652;28;20480;-40
2022/04/17 09:52:23;;;;;;;4.45;1.92;;;;;;;;;;4993467;28;20042;-40
2022/04/17 09:54:51;;;;;;;4.82;2.42;;;;;;;;;;4975933;28;20038;-40
2022/04/17 09:57:28;;;;;;;4.10;1.88;;;;;;;;;;4993515;28;20097;-40
2022/04/17 09:59:58;;;;;;;4.07;2.08;;;;;;;;;;4993472;28;20072;-40
2022/04/17 10:02:25;;;;;;;7.20;2.20;;;;;;;;;;4993346;28;20042;-40
2022/04/17 10:04:53;;;;;;;4.30;1.90;;;;;;;;;;4993249;28;20595;-40
2022/04/17 10:07:22;;;;;;;2.78;1.83;;;;;;;;;;4993359;28;20499;-40
2022/04/17 10:09:49;;;;;;;5.10;2.10;;;;;;;;;;4993112;28;20057;-40
2022/04/17 10:12:19;;;;;;;7.10;2.55;;;;;;;;;;4993175;28;20511;-40
2022/04/17 10:14:51;;;;;;;3.22;2.00;;;;;;;;;;4993031;28;20030;-40
2022/04/17 10:17:20;;;;;;;5.30;2.47;;;;;;;;;;4993071;28;20038;-40
2022/04/17 10:19:48;;;;;;;3.65;2.35;;;;;;;;;;4992946;28;20065;-40
2022/04/17 10:22:20;;;;;;;4.63;2.30;;;;;;;;;;4993031;28;20027;-40
2022/04/17 10:24:57;;;;;;;4.10;2.00;;;;;;;;;;4992888;28;20018;-40
2022/04/17 10:27:25;;;;;;;4.25;2.38;;;;;;;;;;4975638;28;20061;-40
2022/04/17 10:29:55;;;;;;;3.03;1.65;;;;;;;;;;4993109;28;20030;-40
2022/04/17 10:32:28;;;;;;;4.03;2.30;;;;;;;;;;4993043;28;20397;-40
2022/04/17 10:35:04;;;;;;;4.13;2.20;;;;;;;;;;4992937;28;20026;-40
2022/04/17 10:37:37;;;;;;;3.67;2.00;;;;;;;;;;4992826;28;20053;-40
2022/04/17 10:40:04;;;;;;;3.95;2.00;;;;;;;;;;4992885;28;20026;-40
2022/04/17 10:42:53;;;;;;;3.35;1.77;;;;;;;;;;4992934;28;20030;-40
2022/04/17 10:45:21;;;;;;;4.65;1.95;;;;;;;;;;4992804;28;20031;-40
2022/04/17 10:48:06;;;;;;;4.10;1.85;;;;;;;;;;4992601;28;20043;-40
2022/04/17 10:50:52;;;;;;;3.00;1.88;;;;;;;;;;4996810;28;20026;-40
2022/04/17 10:53:28;;;;;;;3.78;1.85;;;;;;;;;;4996789;28;20045;-40
2022/04/17 10:56:21;;;;;;;3.63;1.98;;;;;;;;;;4996731;28;20034;-40
2022/04/17 10:58:53;;;;;;;4.75;1.52;;;;;;;;;;4956744;28;20408;-40
2022/04/17 11:01:39;;;;;;;4.45;1.95;;;;;;;;;;4977188;28;20041;-40
2022/04/17 11:04:26;;;;;;;3.22;1.80;;;;;;;;;;4981819;28;20105;-39
2022/04/17 11:06:56;;;;;;;2.97;1.75;;;;;;;;;;4981236;28;20030;-39
2022/04/17 11:09:24;;;;;;;5.55;1.55;;;;;;;;;;4996521;28;20042;-39
2022/04/17 11:11:51;;;;;;;4.78;1.92;;;;;;;;;;4996395;28;20026;-39
2022/04/17 11:14:21;;;;;;;2.95;2.00;;;;;;;;;;4996348;28;20027;-39
2022/04/17 11:16:58;;;;;;;3.90;1.50;;;;;;;;;;4996090;28;20042;-38
2022/04/17 11:19:26;;;;;;;5.35;2.10;;;;;;;;;;4996396;28;20380;-38
2022/04/17 11:22:04;;;;;;;4.93;2.13;;;;;;;;;;4996279;28;20034;-38
2022/04/17 11:24:50;;;;;;;9.07;2.15;;;;;;;;;;4995991;28;20089;-38
2022/04/17 11:27:17;;;;;;;7.25;2.40;;;;;;;;;;4977932;28;20038;-38
2022/04/17 11:29:50;;;;;;;7.32;3.05;;;;;;;;;;4994699;28;20084;-38
2022/04/17 11:32:16;;;;;;;;;;;;;;;;;;4996032;28;20045;-38
2022/04/17 11:34:56;;;;;;;8.02;3.08;;;;;;;;;;4995304;28;19914;-38
2022/04/17 11:37:23;;;;;;;6.40;2.90;;;;;;;;;;4994788;28;20038;-39
2022/04/17 11:39:51;;;;;;;10.48;3.63;;;;;;;;;;4995505;28;20384;-39
2022/04/17 11:42:18;;;;;;;7.30;3.20;;;;;;;;;;4995108;28;20035;-39
2022/04/17 11:44:45;;;;;;;7.63;3.20;;;;;;;;;;4994971;28;20046;-38
2022/04/17 11:47:16;;;;;;;9.15;3.75;;;;;;;;;;4995018;28;20042;-38
2022/04/17 11:49:44;;;;;;;5.75;3.17;;;;;;;;;;4995105;28;20026;-40
2022/04/17 11:52:15;;;;;;;10.52;3.47;;;;;;;;;;4994954;28;20026;-39
2022/04/17 11:54:42;;;;;;;10.25;3.22;;;;;;;;;;4995275;28;20022;-39
2022/04/17 11:57:10;;;;;;;8.60;3.28;;;;;;;;;;4994984;28;20030;-39
2022/04/17 11:59:47;;;;;;;13.00;3.88;;;;;;;;;;4994418;28;20506;-38
2022/04/17 12:02:16;;;;;;;7.88;3.58;;;;;;;;;;4994867;28;20037;-38
2022/04/17 12:04:47;;;;;;;10.35;3.78;;;;;;;;;;4977437;28;20814;-38
2022/04/17 12:07:15;;;;;;;13.30;3.55;;;;;;;;;;4994882;28;20038;-38
2022/04/17 12:09:42;;;;;;;11.40;3.42;;;;;;;;;;4994924;28;20061;-38
2022/04/17 12:12:13;;;;;;;11.27;3.92;;;;;;;;;;4977321;28;20035;-38
2022/04/17 12:14:40;;;;;;;11.07;3.60;;;;;;;;;;4994649;28;20469;-39
2022/04/17 12:17:07;;;;;;;9.52;3.35;;;;;;;;;;4994595;28;20041;-40
2022/04/17 12:19:34;;;;;;;13.10;3.67;;;;;;;;;;4994809;28;20258;-39
2022/04/17 12:22:14;;;;;;;9.98;3.47;;;;;;;;;;4994626;28;20422;-39
2022/04/17 12:24:44;;;;;;;7.13;2.85;;;;;;;;;;4994494;28;20029;-39
2022/04/17 12:27:19;;;;;;;9.57;3.47;;;;;;;;;;4994712;28;20034;-39
2022/04/17 12:29:49;;;;;;;7.30;3.35;;;;;;;;;;4994255;28;20036;-38
2022/04/17 12:32:17;;;;;;;5.63;3.03;;;;;;;;;;4994294;28;20460;-38
2022/04/17 12:34:47;;;;;;;9.15;3.60;;;;;;;;;;4976965;28;20540;-39
2022/04/17 12:37:21;;;;;;;5.00;2.80;;;;;;;;;;4993977;28;20038;-39
2022/04/17 12:39:48;;;;;;;9.38;3.30;;;;;;;;;;4994204;28;20034;-39
2022/04/17 12:42:19;;;;;;;14.27;3.38;;;;;;;;;;4994388;28;20043;-39
2022/04/17 12:44:47;;;;;;;7.35;2.95;;;;;;;;;;4993925;28;20027;-41
2022/04/17 12:47:17;;;;;;;5.93;2.72;;;;;;;;;;4994070;28;20051;-39
2022/04/17 12:49:44;;;;;;;7.43;2.92;;;;;;;;;;4994340;28;20491;-39
2022/04/17 12:52:21;;;;;;;5.95;2.80;;;;;;;;;;4993692;28;20046;-39
2022/04/17 12:54:48;;;;;;;6.13;2.80;;;;;;;;;;4994272;28;20165;-39
2022/04/17 12:57:20;;;;;;;11.27;3.20;;;;;;;;;;4994234;28;20492;-39
2022/04/17 12:59:48;;;;;;;6.95;2.63;;;;;;;;;;4993605;28;20029;-38
2022/04/17 13:02:19;;;;;;;7.07;3.03;;;;;;;;;;4993979;28;20124;-38
2022/04/17 13:04:53;;;;;;;8.65;2.97;;;;;;;;;;4993908;28;20026;-39
2022/04/17 13:07:20;;;;;;;4.57;2.53;;;;;;;;;;4993664;28;20034;-38
2022/04/17 13:09:53;;;;;;;8.68;2.58;;;;;;;;;;4993969;28;20029;-38
2022/04/17 13:12:51;;;;;;;7.93;2.72;;;;;;;;;;4992859;28;20381;-38
2022/04/17 13:15:19;;;;;;;8.90;2.53;;;;;;;;;;4977803;28;20042;-39
2022/04/17 13:17:46;;;;;;;6.10;2.33;;;;;;;;;;4993699;28;20046;-39
2022/04/17 13:20:13;;;;;;;5.00;2.70;;;;;;;;;;4993720;28;20113;-39
2022/04/17 13:22:41;;;;;;;5.28;2.33;;;;;;;;;;4993522;28;20038;-39
2022/04/17 13:25:12;;;;;;;6.10;2.35;;;;;;;;;;4992663;28;20112;-38
2022/04/17 13:27:39;;;;;;;5.07;2.20;;;;;;;;;;4992939;28;20423;-38
2022/04/17 13:30:10;;;;;;;6.90;2.60;;;;;;;;;;4993162;28;20559;-38
2022/04/17 13:32:38;;;;;;;4.60;2.35;;;;;;;;;;4993338;28;20396;-38
2022/04/17 13:35:06;;;;;;;7.97;2.60;;;;;;;;;;4992620;28;20061;-38
2022/04/17 13:40:18;;;;;;;4.90;2.47;;;;;;;;;;4993181;28;20154;-38
2022/04/17 13:42:45;;;;;;;6.60;2.35;;;;;;;;;;4992625;28;20043;-39
2022/04/17 13:45:12;;;;;;;8.10;2.22;;;;;;;;;;4992553;28;20026;-38
2022/04/17 13:47:40;;;;;;;4.55;2.28;;;;;;;;;;4992124;28;20051;-39
2022/04/17 13:50:08;;;;;;;5.85;2.38;;;;;;;;;;4991313;28;20035;-40
2022/04/17 13:52:36;;;;;;;6.82;2.38;;;;;;;;;;4992218;28;20522;-39
2022/04/17 13:55:04;;;;;;;7.05;2.45;;;;;;;;;;4974942;28;20114;-39
2022/04/17 13:57:32;;;;;;;7.03;2.30;;;;;;;;;;4991462;28;20058;-39
2022/04/17 13:59:59;;;;;;;6.68;2.40;;;;;;;;;;4991727;28;20481;-40
2022/04/17 14:02:26;;;;;;;3.28;1.90;;;;;;;;;;4991701;28;20038;-40
2022/04/17 14:04:53;;;;;;;4.53;2.15;;;;;;;;;;4991373;28;20026;-40
2022/04/17 14:07:20;;;;;;;5.32;2.30;;;;;;;;;;4991932;28;20052;-38
2022/04/17 14:09:47;;;;;;;5.05;2.35;;;;;;;;;;4991782;28;20034;-38
2022/04/17 14:12:14;;;;;;;10.25;2.28;;;;;;;;;;5001531;28;20112;-42
2022/04/17 14:14:42;;;;;;;6.00;2.42;;;;;;;;;;5011370;28;20025;-45
2022/04/17 14:17:09;;;;;;;7.82;2.65;;;;;;;;;;5011367;28;20033;-45
2022/04/17 14:19:36;;;;;;;8.07;2.25;;;;;;;;;;5007483;28;20038;-45
2022/04/17 14:22:07;;;;;;;9.45;3.20;;;;;;;;;;4991679;28;20038;-46
2022/04/17 14:24:34;;;;;;;9.63;2.40;;;;;;;;;;4991261;28;20773;-46
2022/04/17 14:27:00;;;;;;;10.18;2.55;;;;;;;;;;4991242;28;20106;-46
2022/04/17 14:29:28;;;;;;;6.00;2.35;;;;;;;;;;4991490;28;20034;-42
2022/04/17 14:31:55;;;;;;;6.82;2.80;;;;;;;;;;4991364;28;20065;-45
2022/04/17 14:34:22;;;;;;;6.35;2.35;;;;;;;;;;4991252;28;20026;-46
2022/04/17 14:36:49;;;;;;;7.13;2.30;;;;;;;;;;4990662;28;20026;-46
2022/04/17 14:39:15;;;;;;;7.28;2.65;;;;;;;;;;4991225;28;20476;-46
2022/04/17 14:41:44;;;;;;;3.97;2.17;;;;;;;;;;4990829;28;20085;-45
2022/04/17 14:44:11;;;;;;;7.38;2.08;;;;;;;;;;4990698;28;20034;-46
2022/04/17 14:46:38;;;;;;;8.55;2.35;;;;;;;;;;4910676;28;2337570;-46
2022/04/17 14:49:05;;;;;;;6.72;2.40;;;;;;;;;;4991728;28;20026;-46
2022/04/17 14:51:32;;;;;;;10.25;2.22;;;;;;;;;;4991844;28;20027;-45
2022/04/17 14:54:00;;;;;;;7.97;2.20;;;;;;;;;;4974118;28;20030;-44
2022/04/17 14:56:30;;;;;;;5.85;2.22;;;;;;;;;;4991708;28;20023;-46
2022/04/17 14:58:57;;;;;;;6.60;2.40;;;;;;;;;;4991915;28;20105;-45
2022/04/17 15:01:24;;;;;;;10.98;2.60;;;;;;;;;;4989879;28;20030;-45